KFSM/FSM METAR and TAF weather

Enter ICAO airport designator
Station Type Date Time Source
KFSM METAR 2020/03/31 10:04 UTC NOAA

KFSM 311004Z AUTO 36007KT 3SM -RA BR FEW004 BKN013 OVC035 11/10 A2996 RMK AO2 P0002 T01060100


Station Type Date Time Source
KFSM Decoded METAR 2020/03/31 10:04 UTC NOAA

FORT SMITH REGIONAL AIRPORT, AR, United States (KFSM) 35-20N 94-22W 140M
Mar 31, 2020 - 06:04 AM EDT / 2020.03.31 1004 UTC
Wind: from the N (360 degrees) at 8 MPH (7 KT):0
Visibility: 3 mile(s):0
Sky conditions: overcast
Weather: light rain; mist
Precipitation last hour: 0.02 inches
Temperature: 51.1 F (10.6 C)
Dew Point: 50.0 F (10.0 C)
Relative Humidity: 96%
Pressure (altimeter): 29.96 in. Hg (1014 hPa)
ob: KFSM 311004Z AUTO 36007KT 3SM -RA BR FEW004 BKN013 OVC035 11/10 A2996 RMK AO2 P0002 T01060100
cycle: 10

Station Type Date Time Source
KFSM TAF 2020/03/31 07:42 UTC NOAA

TAF
AMD KFSM 310639Z 3107/0106 07008KT P6SM VCSH SCT008 BKN035
TEMPO 3107/3110 BKN008
FM311000 05005KT P6SM VCSH SCT007 BKN025
TEMPO 3110/3113 5SM BR BKN010
FM311300 03008KT P6SM BKN025
FM311500 04009KT P6SM BKN035
FM312000 27006KT P6SM BKN250

Example: see airport list